Prichard, Alabama
Current Conditions -  °F | °C
As of 6:53 PM on Tuesday 25 Nov 2014 (Local Time) from KBFM Reporting Station
Overcast Overcast  
Wind Chill: 55°   Ceiling: 11000
Heat Index: 55°   Visibility: 10mi
Dew Point: 35°   Wind: 10mph
Humidity: 47%   Direction: 320°NW
Pressure: 30.16"   Gusts: NA
Location:  30.74°N, 88.08°W
Report Text: KBFM 260053Z 32009KT 10SM OVC110 13/02 A3016 RMK AO2 SLP213 T01280017
Loading
Personal Weather Stations






























Interactive Weather Map New forecast layout! Learn more

10-Day Weather Forecast

Advertisements
Track Severe Weather on mobile